createdAt,value
2023-04-24T00:01:10.378Z,8.83
2023-04-24T00:03:38.221Z,8.80
2023-04-24T00:06:08.015Z,8.78
2023-04-24T00:08:35.860Z,8.82
2023-04-24T00:11:02.864Z,8.77
2023-04-24T00:13:29.826Z,8.76
2023-04-24T00:15:57.364Z,8.86
2023-04-24T00:18:24.017Z,8.80
2023-04-24T00:20:50.799Z,8.82
2023-04-24T00:23:17.418Z,8.70
2023-04-24T00:25:44.209Z,8.66
2023-04-24T00:28:11.305Z,8.65
2023-04-24T00:30:37.849Z,8.58
2023-04-24T00:33:05.384Z,8.63
2023-04-24T00:35:32.425Z,8.60
2023-04-24T00:37:59.031Z,8.60
2023-04-24T00:40:25.885Z,8.50
2023-04-24T00:42:52.715Z,8.53
2023-04-24T00:45:19.428Z,8.59
2023-04-24T00:47:46.797Z,8.48
2023-04-24T00:50:16.103Z,8.49
2023-04-24T00:52:43.059Z,8.54
2023-04-24T00:55:10.356Z,8.60
2023-04-24T00:57:37.939Z,8.46
2023-04-24T01:00:06.981Z,8.40
2023-04-24T01:02:35.595Z,8.30
2023-04-24T01:05:02.675Z,8.27
2023-04-24T01:07:29.947Z,8.28
2023-04-24T01:09:57.392Z,8.30
2023-04-24T01:12:25.562Z,8.26
2023-04-24T01:14:52.185Z,8.27
2023-04-24T01:17:18.907Z,8.26
2023-04-24T01:19:45.946Z,8.39
2023-04-24T01:22:15.365Z,8.29
2023-04-24T01:24:43.495Z,8.42
2023-04-24T01:27:16.061Z,8.37
2023-04-24T01:29:45.858Z,8.33
2023-04-24T01:32:13.320Z,8.32
2023-04-24T01:34:41.524Z,8.27
2023-04-24T01:37:08.377Z,8.21
2023-04-24T01:39:35.299Z,8.17
2023-04-24T01:42:03.475Z,8.23
2023-04-24T01:44:30.234Z,8.21
2023-04-24T01:46:57.218Z,8.21
2023-04-24T01:49:24.484Z,8.17
2023-04-24T01:51:51.063Z,8.15
2023-04-24T01:54:17.766Z,8.20
2023-04-24T01:56:44.833Z,8.17
2023-04-24T01:59:12.851Z,8.18
2023-04-24T02:01:40.460Z,8.25
2023-04-24T02:04:08.780Z,8.22
2023-04-24T02:06:36.247Z,8.24
2023-04-24T02:09:04.236Z,8.30
2023-04-24T02:11:31.066Z,8.25
2023-04-24T02:13:58.617Z,8.19
2023-04-24T02:16:25.797Z,8.12
2023-04-24T02:18:52.684Z,8.08
2023-04-24T02:21:19.265Z,8.05
2023-04-24T02:23:46.234Z,8.08
2023-04-24T02:26:13.566Z,8.12
2023-04-24T02:28:40.201Z,8.11
2023-04-24T02:31:07.424Z,8.09
2023-04-24T02:33:34.428Z,8.08
2023-04-24T02:36:01.192Z,7.98
2023-04-24T02:38:28.017Z,8.03
2023-04-24T02:40:54.729Z,8.01
2023-04-24T02:43:21.689Z,8.08
2023-04-24T02:45:48.569Z,8.03
2023-04-24T02:48:15.122Z,8.08
2023-04-24T02:50:41.962Z,8.05
2023-04-24T02:53:08.537Z,8.02
2023-04-24T02:55:35.394Z,8.03
2023-04-24T02:58:02.480Z,8.03
2023-04-24T03:00:29.064Z,8.06
2023-04-24T03:02:55.884Z,7.99
2023-04-24T03:05:22.711Z,7.98
2023-04-24T03:07:49.425Z,7.94
2023-04-24T03:10:16.099Z,7.90
2023-04-24T03:12:42.672Z,7.88
2023-04-24T03:15:10.128Z,7.89
2023-04-24T03:17:37.929Z,7.95
2023-04-24T03:20:06.532Z,7.84
2023-04-24T03:22:33.968Z,7.77
2023-04-24T03:25:01.904Z,7.74
2023-04-24T03:27:28.566Z,7.76
2023-04-24T03:30:04.932Z,7.76
2023-04-24T03:32:52.485Z,7.81
2023-04-24T03:35:24.074Z,7.79
2023-04-24T03:37:51.783Z,7.77
2023-04-24T03:40:47.750Z,7.76
2023-04-24T03:43:28.490Z,7.73
2023-04-24T03:45:57.676Z,7.77
2023-04-24T03:48:24.790Z,7.74
2023-04-24T03:50:51.785Z,7.79
2023-04-24T03:53:18.610Z,7.79
2023-04-24T03:55:45.355Z,7.78
2023-04-24T03:58:12.389Z,7.87
2023-04-24T04:00:41.298Z,7.89
2023-04-24T04:03:40.255Z,7.90
2023-04-24T04:06:07.721Z,7.90
2023-04-24T04:08:34.677Z,7.85
2023-04-24T04:11:02.900Z,7.81
2023-04-24T04:13:31.969Z,7.80
2023-04-24T04:15:58.710Z,7.87
2023-04-24T04:18:25.674Z,7.86
2023-04-24T04:20:52.912Z,7.80
2023-04-24T04:23:19.678Z,7.84
2023-04-24T04:26:07.135Z,8.03
2023-04-24T04:28:49.930Z,8.09
2023-04-24T04:31:16.872Z,8.05
2023-04-24T04:33:43.606Z,8.03
2023-04-24T04:36:10.909Z,7.96
2023-04-24T04:38:44.029Z,7.90
2023-04-24T04:41:49.878Z,8.01
2023-04-24T04:44:18.447Z,7.97
2023-04-24T04:46:45.542Z,8.03
2023-04-24T04:49:22.709Z,8.01
2023-04-24T04:51:49.471Z,8.13
2023-04-24T04:54:16.897Z,8.08
2023-04-24T04:56:44.041Z,8.14
2023-04-24T04:59:10.832Z,8.05
2023-04-24T05:01:39.332Z,8.14
2023-04-24T05:04:07.831Z,8.23
2023-04-24T05:06:34.725Z,8.23
2023-04-24T05:09:01.527Z,8.22
2023-04-24T05:11:35.490Z,8.25
2023-04-24T05:14:03.117Z,8.15
2023-04-24T05:16:35.617Z,8.19
2023-04-24T05:19:02.449Z,8.17
2023-04-24T05:21:34.279Z,8.15
2023-04-24T05:24:01.062Z,8.18
2023-04-24T05:26:46.972Z,8.24
2023-04-24T05:29:16.083Z,8.23
2023-04-24T05:31:45.422Z,8.30
2023-04-24T05:34:12.500Z,8.31
2023-04-24T05:36:43.658Z,8.28
2023-04-24T05:39:10.652Z,8.30
2023-04-24T05:41:37.460Z,8.32
2023-04-24T05:44:04.399Z,8.31
2023-04-24T05:46:31.128Z,8.30
2023-04-24T05:48:57.813Z,8.36
2023-04-24T05:51:25.007Z,8.40
2023-04-24T05:53:51.789Z,8.46
2023-04-24T05:56:18.846Z,8.48
2023-04-24T05:58:46.674Z,8.50
2023-04-24T06:01:17.576Z,8.56
2023-04-24T06:03:48.408Z,8.50
2023-04-24T06:06:15.096Z,8.48
2023-04-24T06:08:43.561Z,8.47
2023-04-24T06:11:10.770Z,8.57
2023-04-24T06:13:38.775Z,8.55
2023-04-24T06:16:44.093Z,8.62
2023-04-24T06:19:25.747Z,8.54
2023-04-24T06:21:52.340Z,8.56
2023-04-24T06:24:18.919Z,8.58
2023-04-24T06:26:45.544Z,8.49
2023-04-24T06:29:14.965Z,8.57
2023-04-24T06:31:41.823Z,8.60
2023-04-24T06:34:08.456Z,8.60
2023-04-24T06:36:36.776Z,8.81
2023-04-24T06:39:03.384Z,8.73
2023-04-24T06:41:30.347Z,8.76
2023-04-24T06:43:57.028Z,8.85
2023-04-24T06:46:26.945Z,8.93
2023-04-24T06:48:56.957Z,9.12
2023-04-24T06:51:24.921Z,9.15
2023-04-24T06:53:52.988Z,9.21
2023-04-24T06:56:19.728Z,9.22
2023-04-24T06:58:46.304Z,9.21
2023-04-24T07:01:13.086Z,9.37
2023-04-24T07:03:40.082Z,9.16
2023-04-24T07:06:07.699Z,9.15
2023-04-24T07:08:34.401Z,9.23
2023-04-24T07:11:01.583Z,9.48
2023-04-24T07:13:28.340Z,9.49
2023-04-24T07:15:56.149Z,9.44
2023-04-24T07:18:23.381Z,9.57
2023-04-24T07:20:52.905Z,9.56
2023-04-24T07:23:20.928Z,9.63
2023-04-24T07:25:47.897Z,9.51
2023-04-24T07:28:14.682Z,9.39
2023-04-24T07:30:41.339Z,9.63
2023-04-24T07:33:08.229Z,9.79
2023-04-24T07:35:35.743Z,9.70
2023-04-24T07:38:02.850Z,10.04
2023-04-24T07:40:29.616Z,10.20
2023-04-24T07:42:56.211Z,10.31
2023-04-24T07:45:24.418Z,10.39
2023-04-24T07:47:51.976Z,10.08
2023-04-24T07:50:18.830Z,10.16
2023-04-24T07:52:45.577Z,10.35
2023-04-24T07:55:15.081Z,10.24
2023-04-24T07:57:41.789Z,10.12
2023-04-24T08:00:10.294Z,10.25
2023-04-24T08:02:40.243Z,10.12
2023-04-24T08:05:07.991Z,10.02
2023-04-24T08:07:36.490Z,10.03
2023-04-24T08:10:03.685Z,9.70
2023-04-24T08:12:30.685Z,9.07
2023-04-24T08:14:57.296Z,8.86
2023-04-24T08:17:25.417Z,8.66
2023-04-24T08:19:53.383Z,8.56
2023-04-24T08:22:20.316Z,8.37
2023-04-24T08:24:46.938Z,8.18
2023-04-24T08:27:13.565Z,8.21
2023-04-24T08:29:40.396Z,8.27
2023-04-24T08:32:07.806Z,8.56
2023-04-24T08:34:34.530Z,8.62
2023-04-24T08:37:01.238Z,8.68
2023-04-24T08:39:27.958Z,8.72
2023-04-24T08:41:57.316Z,8.85
2023-04-24T08:44:24.065Z,8.98
2023-04-24T08:46:52.423Z,8.77
2023-04-24T08:49:20.081Z,9.03
2023-04-24T08:51:48.574Z,8.88
2023-04-24T08:54:15.512Z,9.31
2023-04-24T08:56:45.761Z,9.24
2023-04-24T08:59:13.594Z,9.38
2023-04-24T09:01:41.888Z,9.42
2023-04-24T09:04:14.377Z,9.66
2023-04-24T09:06:41.872Z,9.98
2023-04-24T09:09:12.548Z,10.42
2023-04-24T09:11:39.702Z,10.67
2023-04-24T09:14:07.698Z,10.77
2023-04-24T09:16:36.537Z,11.00
2023-04-24T09:19:04.226Z,11.32
2023-04-24T09:21:35.381Z,10.98
2023-04-24T09:24:08.224Z,11.08
2023-04-24T09:26:38.055Z,10.83
2023-04-24T09:29:05.531Z,11.27
2023-04-24T09:31:32.867Z,11.49
2023-04-24T09:34:02.875Z,11.71
2023-04-24T09:36:38.227Z,11.99
2023-04-24T09:39:07.113Z,12.36
2023-04-24T09:41:34.124Z,12.42
2023-04-24T09:44:23.492Z,12.31
2023-04-24T09:46:59.817Z,11.87
2023-04-24T09:49:31.477Z,11.93
2023-04-24T09:52:12.207Z,12.23
2023-04-24T09:54:39.576Z,12.15
2023-04-24T09:57:09.612Z,12.22
2023-04-24T09:59:37.556Z,12.01
2023-04-24T10:02:18.351Z,11.76
2023-04-24T10:04:56.954Z,11.49
2023-04-24T10:07:27.304Z,11.83
2023-04-24T10:09:54.867Z,11.83
2023-04-24T10:12:22.436Z,12.01
2023-04-24T10:14:50.957Z,12.26
2023-04-24T10:17:18.567Z,12.14
2023-04-24T10:19:47.118Z,11.93
2023-04-24T10:22:16.686Z,11.27
2023-04-24T10:24:44.991Z,10.62
2023-04-24T10:27:13.777Z,10.07
2023-04-24T10:29:42.072Z,9.31
2023-04-24T10:32:10.760Z,9.22
2023-04-24T10:34:37.716Z,9.25
2023-04-24T10:37:10.784Z,9.55
2023-04-24T10:39:38.463Z,10.30
2023-04-24T10:42:16.671Z,10.78
2023-04-24T10:44:43.678Z,11.10
2023-04-24T10:47:16.489Z,12.01
2023-04-24T10:49:43.876Z,12.65
2023-04-24T10:52:10.581Z,12.87
2023-04-24T10:54:47.104Z,12.98
2023-04-24T10:57:23.024Z,12.85
2023-04-24T10:59:52.531Z,12.73
2023-04-24T11:02:19.490Z,12.61
2023-04-24T11:04:47.377Z,13.14
2023-04-24T11:07:14.469Z,13.31
2023-04-24T11:09:44.038Z,14.13
2023-04-24T11:12:14.990Z,14.80
2023-04-24T11:14:57.420Z,15.18
2023-04-24T11:17:39.209Z,14.65
2023-04-24T11:20:27.279Z,14.69
2023-04-24T11:22:56.693Z,15.30
2023-04-24T11:25:23.936Z,14.96
2023-04-24T11:27:51.289Z,14.17
2023-04-24T11:30:21.540Z,13.19
2023-04-24T11:32:51.359Z,13.04
2023-04-24T11:35:19.501Z,12.45
2023-04-24T11:38:07.853Z,11.84
2023-04-24T11:40:35.148Z,11.23
2023-04-24T11:43:02.087Z,10.84
2023-04-24T11:45:30.952Z,10.71
2023-04-24T11:47:59.774Z,10.48
2023-04-24T11:50:28.757Z,10.51
2023-04-24T11:52:57.009Z,10.49
2023-04-24T11:55:23.942Z,11.07
2023-04-24T11:57:53.867Z,12.87
2023-04-24T12:00:23.320Z,13.97
2023-04-24T12:02:51.401Z,13.47
2023-04-24T12:05:22.249Z,12.49
2023-04-24T12:07:49.567Z,12.39
2023-04-24T12:10:23.933Z,12.03
2023-04-24T12:12:52.856Z,11.85
2023-04-24T12:15:21.388Z,11.32
2023-04-24T12:17:49.110Z,11.73
2023-04-24T12:20:16.170Z,11.72
2023-04-24T12:22:51.401Z,11.58
2023-04-24T12:25:20.286Z,10.94
2023-04-24T12:27:48.151Z,10.59
2023-04-24T12:30:17.298Z,10.41
2023-04-24T12:32:48.605Z,10.45
2023-04-24T12:35:21.688Z,10.69
2023-04-24T12:37:48.464Z,10.93
2023-04-24T12:40:16.027Z,10.93
2023-04-24T12:42:45.652Z,11.45
2023-04-24T12:45:13.150Z,12.68
2023-04-24T12:47:41.072Z,13.11
2023-04-24T12:50:12.886Z,13.79
2023-04-24T12:52:40.377Z,14.37
2023-04-24T12:55:09.082Z,14.45
2023-04-24T12:57:37.153Z,13.56
2023-04-24T13:00:05.697Z,13.05
2023-04-24T13:02:32.611Z,12.82
2023-04-24T13:05:00.092Z,12.56
2023-04-24T13:07:27.357Z,11.98
2023-04-24T13:09:55.687Z,11.84
2023-04-24T13:12:22.559Z,11.10
2023-04-24T13:14:49.218Z,10.29
2023-04-24T13:17:16.359Z,10.19
2023-04-24T13:19:44.925Z,10.24
2023-04-24T13:22:13.001Z,10.45
2023-04-24T13:24:42.036Z,10.41
2023-04-24T13:27:09.981Z,10.41
2023-04-24T13:29:37.652Z,10.86
2023-04-24T13:32:04.692Z,12.10
2023-04-24T13:34:31.940Z,13.05
2023-04-24T13:36:59.552Z,13.29
2023-04-24T13:39:27.024Z,12.62
2023-04-24T13:41:54.581Z,12.36
2023-04-24T13:44:22.412Z,12.12
2023-04-24T13:46:50.830Z,12.37
2023-04-24T13:49:17.741Z,13.16
2023-04-24T13:51:45.006Z,14.22
2023-04-24T13:54:11.800Z,13.99
2023-04-24T13:56:38.416Z,13.69
2023-04-24T13:59:05.774Z,13.23
2023-04-24T14:01:32.418Z,12.68
2023-04-24T14:03:59.152Z,12.44
2023-04-24T14:06:25.847Z,12.31
2023-04-24T14:08:53.301Z,12.00
2023-04-24T14:11:19.992Z,12.11
2023-04-24T14:13:47.148Z,12.06
2023-04-24T14:16:14.285Z,11.92
2023-04-24T14:18:41.013Z,12.30
2023-04-24T14:21:07.812Z,12.51
2023-04-24T14:23:34.435Z,12.44
2023-04-24T14:26:01.352Z,12.38
2023-04-24T14:28:28.004Z,12.25
2023-04-24T14:30:54.717Z,12.89
2023-04-24T14:33:21.485Z,12.77
2023-04-24T14:35:48.659Z,13.45
2023-04-24T14:38:16.250Z,13.79
2023-04-24T14:43:12.788Z,16.13
2023-04-24T14:45:41.130Z,17.53
2023-04-24T14:48:09.284Z,17.52
2023-04-24T14:50:36.511Z,15.99
2023-04-24T14:53:03.283Z,14.99
2023-04-24T14:55:30.019Z,14.45
2023-04-24T14:57:56.617Z,13.82
2023-04-24T15:00:26.535Z,13.44
2023-04-24T15:02:53.464Z,13.27
2023-04-24T15:05:20.915Z,12.94
2023-04-24T15:07:47.587Z,12.70
2023-04-24T15:10:14.403Z,12.92
2023-04-24T15:12:41.250Z,13.16
2023-04-24T15:15:09.295Z,13.39
2023-04-24T15:17:35.981Z,13.24
2023-04-24T15:20:03.952Z,12.93
2023-04-24T15:22:30.726Z,12.65
2023-04-24T15:24:57.415Z,12.64
2023-04-24T15:27:24.133Z,12.64
2023-04-24T15:29:50.931Z,12.14
2023-04-24T15:32:17.787Z,11.95
2023-04-24T15:34:45.721Z,11.61
2023-04-24T15:37:12.643Z,11.63
2023-04-24T15:39:39.262Z,11.84
2023-04-24T15:42:06.068Z,11.78
2023-04-24T15:44:32.567Z,12.77
2023-04-24T15:47:01.679Z,14.06
2023-04-24T15:49:28.430Z,15.90
2023-04-24T15:51:55.351Z,16.02
2023-04-24T15:54:22.037Z,14.98
2023-04-24T15:56:50.935Z,14.81
2023-04-24T15:59:18.671Z,14.51
2023-04-24T16:01:45.249Z,14.98
2023-04-24T16:04:12.216Z,15.13
2023-04-24T16:06:39.072Z,15.12
2023-04-24T16:09:05.911Z,14.96
2023-04-24T16:11:36.516Z,13.82
2023-04-24T16:14:03.094Z,13.21
2023-04-24T16:16:29.626Z,12.97
2023-04-24T16:18:56.488Z,12.76
2023-04-24T16:21:23.214Z,12.59
2023-04-24T16:23:50.337Z,12.32
2023-04-24T16:26:17.050Z,11.92
2023-04-24T16:28:43.731Z,11.78
2023-04-24T16:31:10.535Z,11.90
2023-04-24T16:33:37.318Z,11.73
2023-04-24T16:36:05.858Z,11.80
2023-04-24T16:38:34.137Z,12.03
2023-04-24T16:41:00.769Z,12.34
2023-04-24T16:43:27.546Z,12.61
2023-04-24T16:45:54.508Z,12.87
2023-04-24T16:48:22.252Z,12.61
2023-04-24T16:50:48.869Z,12.17
2023-04-24T16:53:15.430Z,12.04
2023-04-24T16:55:42.301Z,11.77
2023-04-24T16:58:08.823Z,11.84
2023-04-24T17:00:36.880Z,11.76
2023-04-24T17:03:03.557Z,11.95
2023-04-24T17:05:30.248Z,12.10
2023-04-24T17:07:57.091Z,12.06
2023-04-24T17:10:23.762Z,12.10
2023-04-24T17:12:51.153Z,12.27
2023-04-24T17:15:17.705Z,12.38
2023-04-24T17:17:46.033Z,12.66
2023-04-24T17:20:21.940Z,12.26
2023-04-24T17:22:49.840Z,11.79
2023-04-24T17:25:16.918Z,11.41
2023-04-24T17:27:44.866Z,11.14
2023-04-24T17:30:12.050Z,10.97
2023-04-24T17:32:38.888Z,10.76
2023-04-24T17:35:06.201Z,10.95
2023-04-24T17:37:33.776Z,10.73
2023-04-24T17:40:00.543Z,10.50
2023-04-24T17:42:27.226Z,10.46
2023-04-24T17:44:53.840Z,10.41
2023-04-24T17:47:22.294Z,10.44
2023-04-24T17:49:48.980Z,10.13
2023-04-24T17:52:17.625Z,10.06
2023-04-24T17:54:44.506Z,9.82
2023-04-24T17:57:11.428Z,9.70
2023-04-24T17:59:38.103Z,9.64
2023-04-24T18:02:04.739Z,9.47
2023-04-24T18:04:31.477Z,9.39
2023-04-24T18:06:58.412Z,9.30
2023-04-24T18:09:24.928Z,9.26
2023-04-24T18:11:51.630Z,9.20
2023-04-24T18:14:18.597Z,9.29
2023-04-24T18:16:45.365Z,9.11
2023-04-24T18:19:12.015Z,8.96
2023-04-24T18:21:38.782Z,8.88
2023-04-24T18:24:05.550Z,8.67
2023-04-24T18:26:32.322Z,8.55
2023-04-24T18:28:58.954Z,8.44
2023-04-24T18:31:25.942Z,8.36
2023-04-24T18:33:54.090Z,8.29
2023-04-24T18:36:21.308Z,8.15
2023-04-24T18:38:48.214Z,8.13
2023-04-24T18:41:15.391Z,8.35
2023-04-24T18:43:42.028Z,8.45
2023-04-24T18:46:08.869Z,8.67
2023-04-24T18:48:35.717Z,8.69
2023-04-24T18:51:02.272Z,8.89
2023-04-24T18:53:28.958Z,8.77
2023-04-24T18:55:55.516Z,8.79
2023-04-24T18:58:22.039Z,8.73
2023-04-24T19:00:48.914Z,8.71
2023-04-24T19:03:15.710Z,8.54
2023-04-24T19:05:42.601Z,8.47
2023-04-24T19:08:09.123Z,8.42
2023-04-24T19:10:36.782Z,8.43
2023-04-24T19:13:03.824Z,8.44
2023-04-24T19:15:30.727Z,8.46
2023-04-24T19:17:57.707Z,8.52
2023-04-24T19:20:26.027Z,8.46
2023-04-24T19:22:53.004Z,8.40
2023-04-24T19:25:19.893Z,8.33
2023-04-24T19:27:46.579Z,8.28
2023-04-24T19:30:13.365Z,8.24
2023-04-24T19:32:39.930Z,8.25
2023-04-24T19:35:07.311Z,8.25
2023-04-24T19:37:35.249Z,8.19
2023-04-24T19:40:02.748Z,8.17
2023-04-24T19:42:42.458Z,8.20
2023-04-24T19:45:11.733Z,8.21
2023-04-24T19:47:38.764Z,8.26
2023-04-24T19:50:06.330Z,8.13
2023-04-24T19:52:32.976Z,8.03
2023-04-24T19:54:59.693Z,7.93
2023-04-24T19:57:26.627Z,7.89
2023-04-24T19:59:53.166Z,7.91
2023-04-24T20:02:20.214Z,7.94
2023-04-24T20:04:47.083Z,7.89
2023-04-24T20:07:14.068Z,7.91
2023-04-24T20:09:40.635Z,7.93
2023-04-24T20:12:07.448Z,8.07
2023-04-24T20:14:34.188Z,8.06
2023-04-24T20:17:01.022Z,8.06
2023-04-24T20:19:27.646Z,7.96
2023-04-24T20:21:54.782Z,7.97
2023-04-24T20:24:21.339Z,7.87
2023-04-24T20:26:49.935Z,7.87
2023-04-24T20:29:16.587Z,7.73
2023-04-24T20:31:43.273Z,7.66
2023-04-24T20:34:10.461Z,7.60
2023-04-24T20:36:37.210Z,7.43
2023-04-24T20:39:06.547Z,7.32
2023-04-24T20:41:34.077Z,7.27
2023-04-24T20:44:01.186Z,7.13
2023-04-24T20:46:28.200Z,7.04
2023-04-24T20:48:54.863Z,6.96
2023-04-24T20:51:21.596Z,6.94
2023-04-24T20:53:49.444Z,6.88
2023-04-24T20:56:16.703Z,6.83
2023-04-24T20:58:47.103Z,6.73
2023-04-24T21:01:14.959Z,6.63
2023-04-24T21:03:42.537Z,6.61
2023-04-24T21:06:09.775Z,6.52
2023-04-24T21:08:37.798Z,6.46
2023-04-24T21:11:04.662Z,6.46
2023-04-24T21:13:31.452Z,6.43
2023-04-24T21:15:58.321Z,6.36
2023-04-24T21:18:26.167Z,6.44
2023-04-24T21:20:53.601Z,6.49
2023-04-24T21:23:20.705Z,6.51
2023-04-24T21:25:47.668Z,6.54
2023-04-24T21:28:14.628Z,6.52
2023-04-24T21:30:41.441Z,6.52
2023-04-24T21:33:08.168Z,6.48
2023-04-24T21:35:35.296Z,6.47
2023-04-24T21:38:01.830Z,6.44
2023-04-24T21:40:29.127Z,6.56
2023-04-24T21:42:56.161Z,6.61
2023-04-24T21:45:23.062Z,6.63
2023-04-24T21:47:49.736Z,6.63
2023-04-24T21:50:16.329Z,6.68
2023-04-24T21:52:43.406Z,6.70
2023-04-24T21:55:10.027Z,6.58
2023-04-24T21:57:36.604Z,6.70
2023-04-24T22:00:06.187Z,6.65
2023-04-24T22:02:32.785Z,6.72
2023-04-24T22:05:03.323Z,6.77
2023-04-24T22:07:30.516Z,6.73
2023-04-24T22:09:57.149Z,6.83
2023-04-24T22:12:23.806Z,7.04
2023-04-24T22:14:50.741Z,7.29
2023-04-24T22:17:17.418Z,7.36
2023-04-24T22:19:44.136Z,7.22
2023-04-24T22:22:10.892Z,7.09
2023-04-24T22:24:37.540Z,7.43
2023-04-24T22:27:04.264Z,7.39
2023-04-24T22:29:31.032Z,7.42
2023-04-24T22:31:57.766Z,7.32
2023-04-24T22:34:24.476Z,7.12
2023-04-24T22:36:51.207Z,6.96
2023-04-24T22:39:17.838Z,6.86
2023-04-24T22:41:44.706Z,6.74
2023-04-24T22:44:11.397Z,6.61
2023-04-24T22:46:38.311Z,6.51
2023-04-24T22:49:05.231Z,6.51
2023-04-24T22:51:35.358Z,6.56
2023-04-24T22:54:04.838Z,6.57
2023-04-24T22:56:32.189Z,6.72
2023-04-24T22:58:59.234Z,6.85
2023-04-24T23:01:29.512Z,6.77
2023-04-24T23:03:56.301Z,6.90
2023-04-24T23:06:23.218Z,7.05
2023-04-24T23:08:50.019Z,7.11
2023-04-24T23:11:17.109Z,7.11
2023-04-24T23:13:44.385Z,7.03
2023-04-24T23:16:11.139Z,6.88
2023-04-24T23:18:37.921Z,6.90
2023-04-24T23:21:04.799Z,6.89
2023-04-24T23:23:31.410Z,6.81
2023-04-24T23:25:58.659Z,6.78
2023-04-24T23:28:26.354Z,6.74
2023-04-24T23:30:53.070Z,6.69
2023-04-24T23:33:19.898Z,6.67
2023-04-24T23:35:46.644Z,6.72
2023-04-24T23:38:13.327Z,6.66
2023-04-24T23:40:40.048Z,6.70
2023-04-24T23:43:08.183Z,6.64
2023-04-24T23:45:36.018Z,6.62
2023-04-24T23:48:04.160Z,6.51
2023-04-24T23:50:30.909Z,6.50
2023-04-24T23:52:57.799Z,6.52
2023-04-24T23:55:24.633Z,6.46
2023-04-24T23:57:51.468Z,6.50
